sensor_id;sensor_type;location;lat;lon;timestamp;P1;durP1;ratioP1;P2;durP2;ratioP2
71606;SDS011;60641;53.556;9.914;2023-06-10T00:01:23;12.00;;;3.00;;
71606;SDS011;60641;53.556;9.914;2023-06-10T00:03:50;9.10;;;2.40;;
71606;SDS011;60641;53.556;9.914;2023-06-10T00:06:18;7.60;;;2.40;;
71606;SDS011;60641;53.556;9.914;2023-06-10T00:08:44;6.70;;;2.30;;
71606;SDS011;60641;53.556;9.914;2023-06-10T00:11:13;10.80;;;2.70;;
71606;SDS011;60641;53.556;9.914;2023-06-10T00:13:40;8.90;;;2.50;;
71606;SDS011;60641;53.556;9.914;2023-06-10T00:16:07;10.30;;;3.10;;
71606;SDS011;60641;53.556;9.914;2023-06-10T00:18:33;7.80;;;2.50;;
71606;SDS011;60641;53.556;9.914;2023-06-10T00:21:03;7.80;;;2.20;;
71606;SDS011;60641;53.556;9.914;2023-06-10T00:23:31;7.90;;;2.70;;
71606;SDS011;60641;53.556;9.914;2023-06-10T00:25:58;8.90;;;2.50;;
71606;SDS011;60641;53.556;9.914;2023-06-10T00:28:25;11.40;;;2.60;;
71606;SDS011;60641;53.556;9.914;2023-06-10T00:30:52;8.80;;;2.30;;
71606;SDS011;60641;53.556;9.914;2023-06-10T00:33:19;10.00;;;2.60;;
71606;SDS011;60641;53.556;9.914;2023-06-10T00:35:45;8.10;;;2.60;;
71606;SDS011;60641;53.556;9.914;2023-06-10T00:38:13;10.40;;;3.00;;
71606;SDS011;60641;53.556;9.914;2023-06-10T00:40:40;8.20;;;2.30;;
71606;SDS011;60641;53.556;9.914;2023-06-10T00:43:07;8.50;;;2.80;;
71606;SDS011;60641;53.556;9.914;2023-06-10T00:45:34;11.10;;;2.60;;
71606;SDS011;60641;53.556;9.914;2023-06-10T00:48:01;5.90;;;1.90;;
71606;SDS011;60641;53.556;9.914;2023-06-10T00:50:28;8.40;;;2.30;;
71606;SDS011;60641;53.556;9.914;2023-06-10T00:52:55;10.70;;;2.40;;
71606;SDS011;60641;53.556;9.914;2023-06-10T00:55:21;10.20;;;2.20;;
71606;SDS011;60641;53.556;9.914;2023-06-10T00:57:49;7.20;;;2.30;;
71606;SDS011;60641;53.556;9.914;2023-06-10T01:00:17;7.00;;;1.80;;
71606;SDS011;60641;53.556;9.914;2023-06-10T01:02:44;9.00;;;2.10;;
71606;SDS011;60641;53.556;9.914;2023-06-10T01:05:10;6.50;;;1.70;;
71606;SDS011;60641;53.556;9.914;2023-06-10T01:10:36;6.40;;;2.10;;
71606;SDS011;60641;53.556;9.914;2023-06-10T01:13:09;6.40;;;1.80;;
71606;SDS011;60641;53.556;9.914;2023-06-10T01:15:38;8.90;;;2.20;;
71606;SDS011;60641;53.556;9.914;2023-06-10T01:18:08;7.80;;;1.70;;
71606;SDS011;60641;53.556;9.914;2023-06-10T01:20:38;9.10;;;2.70;;
71606;SDS011;60641;53.556;9.914;2023-06-10T01:23:10;8.40;;;2.10;;
71606;SDS011;60641;53.556;9.914;2023-06-10T01:25:37;12.40;;;2.00;;
71606;SDS011;60641;53.556;9.914;2023-06-10T01:28:17;6.00;;;1.90;;
71606;SDS011;60641;53.556;9.914;2023-06-10T01:30:48;5.60;;;1.50;;
71606;SDS011;60641;53.556;9.914;2023-06-10T01:33:22;6.60;;;2.20;;
71606;SDS011;60641;53.556;9.914;2023-06-10T01:35:52;9.10;;;2.20;;
71606;SDS011;60641;53.556;9.914;2023-06-10T01:38:19;8.40;;;1.90;;
71606;SDS011;60641;53.556;9.914;2023-06-10T01:40:48;10.80;;;2.60;;
71606;SDS011;60641;53.556;9.914;2023-06-10T01:43:14;6.80;;;1.40;;
71606;SDS011;60641;53.556;9.914;2023-06-10T01:45:41;4.80;;;1.20;;
71606;SDS011;60641;53.556;9.914;2023-06-10T01:48:08;7.10;;;2.30;;
71606;SDS011;60641;53.556;9.914;2023-06-10T01:50:35;7.40;;;2.00;;
71606;SDS011;60641;53.556;9.914;2023-06-10T01:53:01;7.50;;;1.80;;
71606;SDS011;60641;53.556;9.914;2023-06-10T01:55:29;6.30;;;2.00;;
71606;SDS011;60641;53.556;9.914;2023-06-10T01:57:56;7.50;;;1.90;;
71606;SDS011;60641;53.556;9.914;2023-06-10T02:00:23;7.60;;;1.80;;
71606;SDS011;60641;53.556;9.914;2023-06-10T02:02:49;7.60;;;1.90;;
71606;SDS011;60641;53.556;9.914;2023-06-10T02:05:16;6.60;;;1.70;;
71606;SDS011;60641;53.556;9.914;2023-06-10T02:07:43;6.10;;;1.60;;
71606;SDS011;60641;53.556;9.914;2023-06-10T02:10:09;10.20;;;1.80;;
71606;SDS011;60641;53.556;9.914;2023-06-10T02:12:36;7.40;;;1.50;;
71606;SDS011;60641;53.556;9.914;2023-06-10T02:15:02;8.10;;;1.50;;
71606;SDS011;60641;53.556;9.914;2023-06-10T02:17:29;6.70;;;1.70;;
71606;SDS011;60641;53.556;9.914;2023-06-10T02:19:56;7.30;;;1.80;;
71606;SDS011;60641;53.556;9.914;2023-06-10T02:22:23;8.50;;;2.10;;
71606;SDS011;60641;53.556;9.914;2023-06-10T02:24:50;9.90;;;1.80;;
71606;SDS011;60641;53.556;9.914;2023-06-10T02:27:17;10.50;;;1.80;;
71606;SDS011;60641;53.556;9.914;2023-06-10T02:29:44;9.10;;;1.50;;
71606;SDS011;60641;53.556;9.914;2023-06-10T02:32:11;6.50;;;1.40;;
71606;SDS011;60641;53.556;9.914;2023-06-10T02:34:37;7.40;;;1.60;;
71606;SDS011;60641;53.556;9.914;2023-06-10T02:37:04;7.00;;;1.70;;
71606;SDS011;60641;53.556;9.914;2023-06-10T02:39:31;8.60;;;1.80;;
71606;SDS011;60641;53.556;9.914;2023-06-10T02:41:57;6.50;;;1.30;;
71606;SDS011;60641;53.556;9.914;2023-06-10T02:44:24;11.20;;;1.80;;
71606;SDS011;60641;53.556;9.914;2023-06-10T02:46:51;7.70;;;1.30;;
71606;SDS011;60641;53.556;9.914;2023-06-10T02:49:17;6.00;;;1.50;;
71606;SDS011;60641;53.556;9.914;2023-06-10T02:51:45;4.60;;;1.30;;
71606;SDS011;60641;53.556;9.914;2023-06-10T02:54:12;7.70;;;1.80;;
71606;SDS011;60641;53.556;9.914;2023-06-10T02:56:38;7.40;;;2.00;;
71606;SDS011;60641;53.556;9.914;2023-06-10T02:59:08;6.80;;;1.40;;
71606;SDS011;60641;53.556;9.914;2023-06-10T03:01:34;9.10;;;1.80;;
71606;SDS011;60641;53.556;9.914;2023-06-10T03:04:04;7.50;;;1.60;;
71606;SDS011;60641;53.556;9.914;2023-06-10T03:06:31;8.80;;;2.20;;
71606;SDS011;60641;53.556;9.914;2023-06-10T03:08:59;7.80;;;1.70;;
71606;SDS011;60641;53.556;9.914;2023-06-10T03:11:26;7.50;;;1.20;;
71606;SDS011;60641;53.556;9.914;2023-06-10T03:13:53;6.10;;;1.30;;
71606;SDS011;60641;53.556;9.914;2023-06-10T03:16:19;7.00;;;1.80;;
71606;SDS011;60641;53.556;9.914;2023-06-10T03:18:46;7.80;;;1.50;;
71606;SDS011;60641;53.556;9.914;2023-06-10T03:21:12;5.20;;;1.30;;
71606;SDS011;60641;53.556;9.914;2023-06-10T03:23:39;6.00;;;1.50;;
71606;SDS011;60641;53.556;9.914;2023-06-10T03:26:05;5.50;;;1.20;;
71606;SDS011;60641;53.556;9.914;2023-06-10T03:28:32;5.70;;;1.10;;
71606;SDS011;60641;53.556;9.914;2023-06-10T03:30:58;7.40;;;2.10;;
71606;SDS011;60641;53.556;9.914;2023-06-10T03:33:25;5.70;;;1.40;;
71606;SDS011;60641;53.556;9.914;2023-06-10T03:35:52;6.30;;;1.30;;
71606;SDS011;60641;53.556;9.914;2023-06-10T03:38:18;6.80;;;1.40;;
71606;SDS011;60641;53.556;9.914;2023-06-10T03:40:45;3.40;;;1.00;;
71606;SDS011;60641;53.556;9.914;2023-06-10T03:43:12;4.90;;;1.40;;
71606;SDS011;60641;53.556;9.914;2023-06-10T03:45:38;5.90;;;1.40;;
71606;SDS011;60641;53.556;9.914;2023-06-10T03:48:05;6.10;;;1.50;;
71606;SDS011;60641;53.556;9.914;2023-06-10T03:50:32;6.80;;;1.70;;
71606;SDS011;60641;53.556;9.914;2023-06-10T03:52:58;9.60;;;1.60;;
71606;SDS011;60641;53.556;9.914;2023-06-10T03:55:25;5.40;;;1.20;;
71606;SDS011;60641;53.556;9.914;2023-06-10T03:57:52;7.70;;;1.40;;
71606;SDS011;60641;53.556;9.914;2023-06-10T04:00:20;5.30;;;1.20;;
71606;SDS011;60641;53.556;9.914;2023-06-10T04:02:48;7.90;;;1.60;;
71606;SDS011;60641;53.556;9.914;2023-06-10T04:05:15;7.90;;;1.30;;
71606;SDS011;60641;53.556;9.914;2023-06-10T04:07:42;6.00;;;1.30;;
71606;SDS011;60641;53.556;9.914;2023-06-10T04:10:10;8.00;;;1.80;;
71606;SDS011;60641;53.556;9.914;2023-06-10T04:12:37;7.40;;;1.20;;
71606;SDS011;60641;53.556;9.914;2023-06-10T04:15:05;6.30;;;1.20;;
71606;SDS011;60641;53.556;9.914;2023-06-10T04:17:32;7.00;;;1.50;;
71606;SDS011;60641;53.556;9.914;2023-06-10T04:19:58;6.80;;;1.30;;
71606;SDS011;60641;53.556;9.914;2023-06-10T04:22:25;7.20;;;1.30;;
71606;SDS011;60641;53.556;9.914;2023-06-10T04:24:52;4.80;;;1.20;;
71606;SDS011;60641;53.556;9.914;2023-06-10T04:27:18;4.80;;;1.30;;
71606;SDS011;60641;53.556;9.914;2023-06-10T04:29:45;6.50;;;1.40;;
71606;SDS011;60641;53.556;9.914;2023-06-10T04:32:11;8.00;;;1.30;;
71606;SDS011;60641;53.556;9.914;2023-06-10T04:34:38;8.80;;;1.50;;
71606;SDS011;60641;53.556;9.914;2023-06-10T04:37:07;5.90;;;1.00;;
71606;SDS011;60641;53.556;9.914;2023-06-10T04:39:34;5.20;;;1.30;;
71606;SDS011;60641;53.556;9.914;2023-06-10T04:42:00;6.90;;;1.30;;
71606;SDS011;60641;53.556;9.914;2023-06-10T04:44:27;7.00;;;1.10;;
71606;SDS011;60641;53.556;9.914;2023-06-10T04:46:54;8.60;;;1.80;;
71606;SDS011;60641;53.556;9.914;2023-06-10T04:49:21;5.60;;;0.90;;
71606;SDS011;60641;53.556;9.914;2023-06-10T04:51:48;8.80;;;1.30;;
71606;SDS011;60641;53.556;9.914;2023-06-10T04:54:15;6.20;;;1.30;;
71606;SDS011;60641;53.556;9.914;2023-06-10T04:56:41;6.70;;;1.30;;
71606;SDS011;60641;53.556;9.914;2023-06-10T04:59:08;9.10;;;1.60;;
71606;SDS011;60641;53.556;9.914;2023-06-10T05:01:35;9.70;;;1.40;;
71606;SDS011;60641;53.556;9.914;2023-06-10T05:04:01;6.40;;;1.10;;
71606;SDS011;60641;53.556;9.914;2023-06-10T05:06:28;9.00;;;1.10;;
71606;SDS011;60641;53.556;9.914;2023-06-10T05:08:54;5.20;;;1.20;;
71606;SDS011;60641;53.556;9.914;2023-06-10T05:11:20;7.10;;;1.10;;
71606;SDS011;60641;53.556;9.914;2023-06-10T05:13:47;6.90;;;1.20;;
71606;SDS011;60641;53.556;9.914;2023-06-10T05:16:15;5.40;;;1.00;;
71606;SDS011;60641;53.556;9.914;2023-06-10T05:18:41;8.70;;;1.30;;
71606;SDS011;60641;53.556;9.914;2023-06-10T05:21:07;7.20;;;1.20;;
71606;SDS011;60641;53.556;9.914;2023-06-10T05:23:34;8.00;;;1.20;;
71606;SDS011;60641;53.556;9.914;2023-06-10T05:26:00;7.90;;;1.40;;
71606;SDS011;60641;53.556;9.914;2023-06-10T05:28:27;5.70;;;1.10;;
71606;SDS011;60641;53.556;9.914;2023-06-10T05:30:53;9.30;;;1.30;;
71606;SDS011;60641;53.556;9.914;2023-06-10T05:33:20;4.20;;;0.80;;
71606;SDS011;60641;53.556;9.914;2023-06-10T05:35:46;6.60;;;1.20;;
71606;SDS011;60641;53.556;9.914;2023-06-10T05:38:13;7.00;;;1.00;;
71606;SDS011;60641;53.556;9.914;2023-06-10T05:40:39;8.00;;;1.30;;
71606;SDS011;60641;53.556;9.914;2023-06-10T05:43:06;7.70;;;1.20;;
71606;SDS011;60641;53.556;9.914;2023-06-10T05:45:32;5.60;;;1.10;;
71606;SDS011;60641;53.556;9.914;2023-06-10T05:47:59;6.80;;;1.30;;
71606;SDS011;60641;53.556;9.914;2023-06-10T05:50:26;7.30;;;1.20;;
71606;SDS011;60641;53.556;9.914;2023-06-10T05:52:52;5.80;;;1.30;;
71606;SDS011;60641;53.556;9.914;2023-06-10T05:55:20;8.50;;;1.30;;
71606;SDS011;60641;53.556;9.914;2023-06-10T05:57:46;5.30;;;1.20;;
71606;SDS011;60641;53.556;9.914;2023-06-10T06:00:13;8.80;;;1.40;;
71606;SDS011;60641;53.556;9.914;2023-06-10T06:02:40;8.00;;;1.90;;
71606;SDS011;60641;53.556;9.914;2023-06-10T06:05:06;7.80;;;1.40;;
71606;SDS011;60641;53.556;9.914;2023-06-10T06:07:33;7.40;;;1.00;;
71606;SDS011;60641;53.556;9.914;2023-06-10T06:09:59;7.00;;;1.20;;
71606;SDS011;60641;53.556;9.914;2023-06-10T06:12:26;6.60;;;1.10;;
71606;SDS011;60641;53.556;9.914;2023-06-10T06:14:52;5.70;;;1.00;;
71606;SDS011;60641;53.556;9.914;2023-06-10T06:17:19;6.70;;;1.50;;
71606;SDS011;60641;53.556;9.914;2023-06-10T06:19:46;5.90;;;1.00;;
71606;SDS011;60641;53.556;9.914;2023-06-10T06:22:13;8.90;;;1.80;;
71606;SDS011;60641;53.556;9.914;2023-06-10T06:24:40;4.90;;;1.30;;
71606;SDS011;60641;53.556;9.914;2023-06-10T06:27:07;7.30;;;1.50;;
71606;SDS011;60641;53.556;9.914;2023-06-10T06:29:33;7.50;;;1.20;;
71606;SDS011;60641;53.556;9.914;2023-06-10T06:32:00;7.40;;;1.20;;
71606;SDS011;60641;53.556;9.914;2023-06-10T06:34:26;7.10;;;1.10;;
71606;SDS011;60641;53.556;9.914;2023-06-10T06:36:53;9.10;;;1.60;;
71606;SDS011;60641;53.556;9.914;2023-06-10T06:39:21;4.00;;;1.10;;
71606;SDS011;60641;53.556;9.914;2023-06-10T06:41:47;7.50;;;1.30;;
71606;SDS011;60641;53.556;9.914;2023-06-10T06:44:14;6.20;;;1.40;;
71606;SDS011;60641;53.556;9.914;2023-06-10T06:46:40;6.30;;;1.20;;
71606;SDS011;60641;53.556;9.914;2023-06-10T06:49:07;6.40;;;1.40;;
71606;SDS011;60641;53.556;9.914;2023-06-10T06:51:33;9.10;;;1.40;;
71606;SDS011;60641;53.556;9.914;2023-06-10T06:53:59;6.40;;;1.40;;
71606;SDS011;60641;53.556;9.914;2023-06-10T06:56:26;9.70;;;1.70;;
71606;SDS011;60641;53.556;9.914;2023-06-10T06:58:54;6.50;;;1.20;;
71606;SDS011;60641;53.556;9.914;2023-06-10T07:01:20;7.50;;;1.50;;
71606;SDS011;60641;53.556;9.914;2023-06-10T07:03:47;7.60;;;1.60;;
71606;SDS011;60641;53.556;9.914;2023-06-10T07:06:13;6.80;;;1.70;;
71606;SDS011;60641;53.556;9.914;2023-06-10T07:08:40;7.00;;;1.60;;
71606;SDS011;60641;53.556;9.914;2023-06-10T07:11:06;5.80;;;1.40;;
71606;SDS011;60641;53.556;9.914;2023-06-10T07:13:33;5.50;;;1.40;;
71606;SDS011;60641;53.556;9.914;2023-06-10T07:15:59;10.80;;;1.80;;
71606;SDS011;60641;53.556;9.914;2023-06-10T07:18:26;7.90;;;1.60;;
71606;SDS011;60641;53.556;9.914;2023-06-10T07:20:54;6.60;;;1.60;;
71606;SDS011;60641;53.556;9.914;2023-06-10T07:23:23;8.10;;;1.60;;
71606;SDS011;60641;53.556;9.914;2023-06-10T07:25:49;6.30;;;1.30;;
71606;SDS011;60641;53.556;9.914;2023-06-10T07:28:16;8.30;;;2.60;;
71606;SDS011;60641;53.556;9.914;2023-06-10T07:30:42;5.70;;;1.80;;
71606;SDS011;60641;53.556;9.914;2023-06-10T07:33:09;6.40;;;1.60;;
71606;SDS011;60641;53.556;9.914;2023-06-10T07:35:37;7.50;;;1.60;;
71606;SDS011;60641;53.556;9.914;2023-06-10T07:38:03;10.60;;;1.60;;
71606;SDS011;60641;53.556;9.914;2023-06-10T07:40:29;7.50;;;1.90;;
71606;SDS011;60641;53.556;9.914;2023-06-10T07:42:56;8.30;;;1.50;;
71606;SDS011;60641;53.556;9.914;2023-06-10T07:45:23;7.90;;;2.20;;
71606;SDS011;60641;53.556;9.914;2023-06-10T07:47:49;7.20;;;1.70;;
71606;SDS011;60641;53.556;9.914;2023-06-10T07:50:16;6.70;;;1.60;;
71606;SDS011;60641;53.556;9.914;2023-06-10T07:52:43;6.70;;;1.70;;
71606;SDS011;60641;53.556;9.914;2023-06-10T07:55:09;6.90;;;1.70;;
71606;SDS011;60641;53.556;9.914;2023-06-10T07:57:36;6.60;;;1.90;;
71606;SDS011;60641;53.556;9.914;2023-06-10T08:00:05;6.50;;;1.70;;
71606;SDS011;60641;53.556;9.914;2023-06-10T08:02:32;10.80;;;1.90;;
71606;SDS011;60641;53.556;9.914;2023-06-10T08:04:58;10.00;;;2.00;;
71606;SDS011;60641;53.556;9.914;2023-06-10T08:07:25;7.40;;;1.90;;
71606;SDS011;60641;53.556;9.914;2023-06-10T08:09:51;5.70;;;1.70;;
71606;SDS011;60641;53.556;9.914;2023-06-10T08:12:18;10.00;;;1.90;;
71606;SDS011;60641;53.556;9.914;2023-06-10T08:14:45;9.80;;;1.90;;
71606;SDS011;60641;53.556;9.914;2023-06-10T08:17:11;8.40;;;1.90;;
71606;SDS011;60641;53.556;9.914;2023-06-10T08:19:38;8.30;;;2.00;;
71606;SDS011;60641;53.556;9.914;2023-06-10T08:22:05;11.90;;;2.20;;
71606;SDS011;60641;53.556;9.914;2023-06-10T08:24:31;6.30;;;1.60;;
71606;SDS011;60641;53.556;9.914;2023-06-10T08:26:58;7.70;;;1.80;;
71606;SDS011;60641;53.556;9.914;2023-06-10T08:29:25;9.30;;;2.10;;
71606;SDS011;60641;53.556;9.914;2023-06-10T08:31:51;6.10;;;1.70;;
71606;SDS011;60641;53.556;9.914;2023-06-10T08:34:17;9.20;;;1.80;;
71606;SDS011;60641;53.556;9.914;2023-06-10T08:36:44;10.50;;;2.10;;
71606;SDS011;60641;53.556;9.914;2023-06-10T08:39:13;8.40;;;2.00;;
71606;SDS011;60641;53.556;9.914;2023-06-10T08:41:42;6.90;;;1.90;;
71606;SDS011;60641;53.556;9.914;2023-06-10T08:44:13;8.90;;;2.30;;
71606;SDS011;60641;53.556;9.914;2023-06-10T08:46:45;9.60;;;2.20;;
71606;SDS011;60641;53.556;9.914;2023-06-10T08:49:14;15.50;;;2.20;;
71606;SDS011;60641;53.556;9.914;2023-06-10T08:51:44;8.20;;;1.80;;
71606;SDS011;60641;53.556;9.914;2023-06-10T08:54:11;7.90;;;1.90;;
71606;SDS011;60641;53.556;9.914;2023-06-10T08:56:44;9.40;;;2.00;;
71606;SDS011;60641;53.556;9.914;2023-06-10T08:59:11;7.40;;;1.80;;
71606;SDS011;60641;53.556;9.914;2023-06-10T09:01:38;8.00;;;2.70;;
71606;SDS011;60641;53.556;9.914;2023-06-10T09:04:05;9.70;;;2.20;;
71606;SDS011;60641;53.556;9.914;2023-06-10T09:06:32;9.00;;;2.30;;
71606;SDS011;60641;53.556;9.914;2023-06-10T09:08:59;9.40;;;2.40;;
71606;SDS011;60641;53.556;9.914;2023-06-10T09:11:26;10.90;;;2.40;;
71606;SDS011;60641;53.556;9.914;2023-06-10T09:13:53;7.10;;;2.20;;
71606;SDS011;60641;53.556;9.914;2023-06-10T09:16:19;7.20;;;2.10;;
71606;SDS011;60641;53.556;9.914;2023-06-10T09:18:46;9.60;;;2.50;;
71606;SDS011;60641;53.556;9.914;2023-06-10T09:21:12;9.60;;;2.40;;
71606;SDS011;60641;53.556;9.914;2023-06-10T09:23:39;8.70;;;2.30;;
71606;SDS011;60641;53.556;9.914;2023-06-10T09:26:08;7.70;;;2.20;;
71606;SDS011;60641;53.556;9.914;2023-06-10T09:28:35;8.30;;;2.10;;
71606;SDS011;60641;53.556;9.914;2023-06-10T09:31:04;7.00;;;2.10;;
71606;SDS011;60641;53.556;9.914;2023-06-10T09:33:31;7.80;;;2.10;;
71606;SDS011;60641;53.556;9.914;2023-06-10T09:35:59;7.50;;;2.10;;
71606;SDS011;60641;53.556;9.914;2023-06-10T09:38:30;8.50;;;2.00;;
71606;SDS011;60641;53.556;9.914;2023-06-10T09:40:58;9.00;;;2.20;;
71606;SDS011;60641;53.556;9.914;2023-06-10T09:43:44;9.60;;;2.50;;
71606;SDS011;60641;53.556;9.914;2023-06-10T09:46:16;8.70;;;2.50;;
71606;SDS011;60641;53.556;9.914;2023-06-10T09:48:44;9.40;;;2.40;;
71606;SDS011;60641;53.556;9.914;2023-06-10T09:51:12;10.70;;;2.70;;
71606;SDS011;60641;53.556;9.914;2023-06-10T09:53:43;10.40;;;2.60;;
71606;SDS011;60641;53.556;9.914;2023-06-10T09:56:15;8.30;;;2.50;;
71606;SDS011;60641;53.556;9.914;2023-06-10T09:58:41;9.40;;;3.30;;
71606;SDS011;60641;53.556;9.914;2023-06-10T10:01:09;8.20;;;2.50;;
71606;SDS011;60641;53.556;9.914;2023-06-10T10:03:50;8.30;;;2.70;;
71606;SDS011;60641;53.556;9.914;2023-06-10T10:06:17;9.70;;;3.00;;
71606;SDS011;60641;53.556;9.914;2023-06-10T10:08:47;5.30;;;2.10;;
71606;SDS011;60641;53.556;9.914;2023-06-10T10:11:19;7.30;;;2.10;;
71606;SDS011;60641;53.556;9.914;2023-06-10T10:13:49;5.60;;;1.90;;
71606;SDS011;60641;53.556;9.914;2023-06-10T10:16:17;9.80;;;2.30;;
71606;SDS011;60641;53.556;9.914;2023-06-10T10:18:56;9.50;;;2.50;;
71606;SDS011;60641;53.556;9.914;2023-06-10T10:21:28;8.50;;;2.60;;
71606;SDS011;60641;53.556;9.914;2023-06-10T10:24:03;9.00;;;3.20;;
71606;SDS011;60641;53.556;9.914;2023-06-10T10:26:34;10.60;;;2.80;;
71606;SDS011;60641;53.556;9.914;2023-06-10T10:31:37;7.70;;;2.30;;
71606;SDS011;60641;53.556;9.914;2023-06-10T10:34:09;9.90;;;2.50;;
71606;SDS011;60641;53.556;9.914;2023-06-10T10:36:38;9.70;;;2.60;;
71606;SDS011;60641;53.556;9.914;2023-06-10T10:39:05;7.30;;;2.40;;
71606;SDS011;60641;53.556;9.914;2023-06-10T10:41:32;8.20;;;2.70;;
71606;SDS011;60641;53.556;9.914;2023-06-10T10:43:59;8.30;;;2.50;;
71606;SDS011;60641;53.556;9.914;2023-06-10T10:46:26;9.00;;;3.00;;
71606;SDS011;60641;53.556;9.914;2023-06-10T10:48:53;7.40;;;3.00;;
71606;SDS011;60641;53.556;9.914;2023-06-10T10:51:21;7.10;;;2.20;;
71606;SDS011;60641;53.556;9.914;2023-06-10T10:56:38;11.00;;;2.80;;
71606;SDS011;60641;53.556;9.914;2023-06-10T10:59:06;8.50;;;2.60;;
71606;SDS011;60641;53.556;9.914;2023-06-10T11:01:42;10.60;;;2.90;;
71606;SDS011;60641;53.556;9.914;2023-06-10T11:04:12;8.90;;;2.60;;
71606;SDS011;60641;53.556;9.914;2023-06-10T11:06:39;7.80;;;2.60;;
71606;SDS011;60641;53.556;9.914;2023-06-10T11:09:25;9.50;;;2.80;;
71606;SDS011;60641;53.556;9.914;2023-06-10T11:11:56;11.20;;;3.00;;
71606;SDS011;60641;53.556;9.914;2023-06-10T11:14:28;11.30;;;3.10;;
71606;SDS011;60641;53.556;9.914;2023-06-10T11:16:58;9.00;;;2.90;;
71606;SDS011;60641;53.556;9.914;2023-06-10T11:19:35;9.60;;;3.10;;
71606;SDS011;60641;53.556;9.914;2023-06-10T11:22:04;8.40;;;3.00;;
71606;SDS011;60641;53.556;9.914;2023-06-10T11:24:32;9.00;;;2.80;;
71606;SDS011;60641;53.556;9.914;2023-06-10T11:27:14;8.20;;;2.70;;
71606;SDS011;60641;53.556;9.914;2023-06-10T11:29:57;7.90;;;2.50;;
71606;SDS011;60641;53.556;9.914;2023-06-10T11:32:29;10.30;;;2.70;;
71606;SDS011;60641;53.556;9.914;2023-06-10T11:35:03;8.60;;;2.90;;
71606;SDS011;60641;53.556;9.914;2023-06-10T11:37:31;7.60;;;3.00;;
71606;SDS011;60641;53.556;9.914;2023-06-10T11:39:57;11.00;;;3.10;;
71606;SDS011;60641;53.556;9.914;2023-06-10T11:42:25;10.30;;;2.80;;
71606;SDS011;60641;53.556;9.914;2023-06-10T11:44:52;10.90;;;3.40;;
71606;SDS011;60641;53.556;9.914;2023-06-10T11:47:20;10.10;;;3.30;;
71606;SDS011;60641;53.556;9.914;2023-06-10T11:49:58;8.80;;;2.70;;
71606;SDS011;60641;53.556;9.914;2023-06-10T11:52:30;8.40;;;2.50;;
71606;SDS011;60641;53.556;9.914;2023-06-10T11:55:06;11.40;;;3.30;;
71606;SDS011;60641;53.556;9.914;2023-06-10T11:57:35;8.20;;;3.40;;
71606;SDS011;60641;53.556;9.914;2023-06-10T12:00:06;8.10;;;2.60;;
71606;SDS011;60641;53.556;9.914;2023-06-10T12:02:34;8.60;;;3.10;;
71606;SDS011;60641;53.556;9.914;2023-06-10T12:05:13;11.00;;;3.60;;
71606;SDS011;60641;53.556;9.914;2023-06-10T12:07:40;9.80;;;3.20;;
71606;SDS011;60641;53.556;9.914;2023-06-10T12:10:06;8.70;;;3.40;;
71606;SDS011;60641;53.556;9.914;2023-06-10T12:12:36;9.30;;;3.40;;
71606;SDS011;60641;53.556;9.914;2023-06-10T12:15:03;9.20;;;3.30;;
71606;SDS011;60641;53.556;9.914;2023-06-10T12:19:59;8.70;;;3.10;;
71606;SDS011;60641;53.556;9.914;2023-06-10T12:22:26;13.70;;;3.50;;
71606;SDS011;60641;53.556;9.914;2023-06-10T12:24:59;9.70;;;3.40;;
71606;SDS011;60641;53.556;9.914;2023-06-10T12:27:27;10.60;;;4.10;;
71606;SDS011;60641;53.556;9.914;2023-06-10T12:29:57;9.00;;;3.30;;
71606;SDS011;60641;53.556;9.914;2023-06-10T12:32:35;9.60;;;3.90;;
71606;SDS011;60641;53.556;9.914;2023-06-10T12:35:06;9.50;;;3.40;;
71606;SDS011;60641;53.556;9.914;2023-06-10T12:37:33;9.70;;;3.60;;
71606;SDS011;60641;53.556;9.914;2023-06-10T12:40:00;11.60;;;3.60;;
71606;SDS011;60641;53.556;9.914;2023-06-10T12:42:29;9.10;;;4.50;;
71606;SDS011;60641;53.556;9.914;2023-06-10T12:44:57;8.60;;;3.50;;
71606;SDS011;60641;53.556;9.914;2023-06-10T12:47:34;10.30;;;3.70;;
71606;SDS011;60641;53.556;9.914;2023-06-10T12:50:02;9.40;;;3.10;;
71606;SDS011;60641;53.556;9.914;2023-06-10T12:52:30;9.10;;;3.80;;
71606;SDS011;60641;53.556;9.914;2023-06-10T12:54:57;10.10;;;4.00;;
71606;SDS011;60641;53.556;9.914;2023-06-10T12:57:24;8.30;;;3.70;;
71606;SDS011;60641;53.556;9.914;2023-06-10T12:59:52;8.40;;;3.50;;
71606;SDS011;60641;53.556;9.914;2023-06-10T13:02:19;10.20;;;3.80;;
71606;SDS011;60641;53.556;9.914;2023-06-10T13:04:46;7.80;;;3.60;;
71606;SDS011;60641;53.556;9.914;2023-06-10T13:07:13;11.90;;;4.30;;
71606;SDS011;60641;53.556;9.914;2023-06-10T13:09:39;10.90;;;4.00;;
71606;SDS011;60641;53.556;9.914;2023-06-10T13:12:06;8.30;;;3.80;;
71606;SDS011;60641;53.556;9.914;2023-06-10T13:14:34;10.30;;;3.80;;
71606;SDS011;60641;53.556;9.914;2023-06-10T13:17:00;7.40;;;3.20;;
71606;SDS011;60641;53.556;9.914;2023-06-10T13:19:27;9.50;;;4.20;;
71606;SDS011;60641;53.556;9.914;2023-06-10T13:21:53;11.00;;;4.20;;
71606;SDS011;60641;53.556;9.914;2023-06-10T13:24:20;9.30;;;3.90;;
71606;SDS011;60641;53.556;9.914;2023-06-10T13:26:48;10.40;;;3.80;;
71606;SDS011;60641;53.556;9.914;2023-06-10T13:29:15;8.60;;;3.20;;
71606;SDS011;60641;53.556;9.914;2023-06-10T13:31:41;8.80;;;3.50;;
71606;SDS011;60641;53.556;9.914;2023-06-10T13:34:08;11.80;;;3.80;;
71606;SDS011;60641;53.556;9.914;2023-06-10T13:36:35;8.50;;;3.60;;
71606;SDS011;60641;53.556;9.914;2023-06-10T13:39:02;10.00;;;4.30;;
71606;SDS011;60641;53.556;9.914;2023-06-10T13:41:28;8.30;;;3.50;;
71606;SDS011;60641;53.556;9.914;2023-06-10T13:43:55;13.20;;;4.20;;
71606;SDS011;60641;53.556;9.914;2023-06-10T13:46:21;8.50;;;3.80;;
71606;SDS011;60641;53.556;9.914;2023-06-10T13:48:50;8.50;;;3.30;;
71606;SDS011;60641;53.556;9.914;2023-06-10T13:51:17;9.50;;;3.70;;
71606;SDS011;60641;53.556;9.914;2023-06-10T13:53:43;10.30;;;3.90;;
71606;SDS011;60641;53.556;9.914;2023-06-10T13:56:12;10.80;;;3.40;;
71606;SDS011;60641;53.556;9.914;2023-06-10T13:58:38;8.70;;;3.10;;
71606;SDS011;60641;53.556;9.914;2023-06-10T14:01:07;11.00;;;3.10;;
71606;SDS011;60641;53.556;9.914;2023-06-10T14:03:34;8.00;;;3.30;;
71606;SDS011;60641;53.556;9.914;2023-06-10T14:06:00;9.10;;;2.80;;
71606;SDS011;60641;53.556;9.914;2023-06-10T14:08:27;11.80;;;3.00;;
71606;SDS011;60641;53.556;9.914;2023-06-10T14:10:53;11.00;;;3.70;;
71606;SDS011;60641;53.556;9.914;2023-06-10T14:13:21;8.40;;;3.00;;
71606;SDS011;60641;53.556;9.914;2023-06-10T14:15:50;9.00;;;3.10;;
71606;SDS011;60641;53.556;9.914;2023-06-10T14:18:23;7.70;;;2.40;;
71606;SDS011;60641;53.556;9.914;2023-06-10T14:20:49;10.10;;;2.90;;
71606;SDS011;60641;53.556;9.914;2023-06-10T14:23:16;8.80;;;2.50;;
71606;SDS011;60641;53.556;9.914;2023-06-10T14:25:42;12.00;;;2.70;;
71606;SDS011;60641;53.556;9.914;2023-06-10T14:28:14;8.70;;;2.80;;
71606;SDS011;60641;53.556;9.914;2023-06-10T14:30:43;10.00;;;2.70;;
71606;SDS011;60641;53.556;9.914;2023-06-10T14:33:09;10.10;;;2.80;;
71606;SDS011;60641;53.556;9.914;2023-06-10T14:35:36;7.10;;;2.50;;
71606;SDS011;60641;53.556;9.914;2023-06-10T14:38:03;8.20;;;2.60;;
71606;SDS011;60641;53.556;9.914;2023-06-10T14:40:31;11.20;;;2.90;;
71606;SDS011;60641;53.556;9.914;2023-06-10T14:42:58;9.70;;;3.00;;
71606;SDS011;60641;53.556;9.914;2023-06-10T14:45:33;7.30;;;2.50;;
71606;SDS011;60641;53.556;9.914;2023-06-10T14:47:59;14.90;;;2.70;;
71606;SDS011;60641;53.556;9.914;2023-06-10T14:50:26;11.20;;;2.80;;
71606;SDS011;60641;53.556;9.914;2023-06-10T14:52:52;8.90;;;2.30;;
71606;SDS011;60641;53.556;9.914;2023-06-10T14:55:19;12.20;;;2.60;;
71606;SDS011;60641;53.556;9.914;2023-06-10T14:57:46;10.50;;;2.80;;
71606;SDS011;60641;53.556;9.914;2023-06-10T15:00:13;8.40;;;2.80;;